Flight Track Log - Related Links

Times and Time Zones

All times are in EDT time to prevent confusion due to time zone crossing. See the UAL538 flight status page for this flight to view local times or setup timezone preferences in your user account.

Time Position Orientation Groundspeed Altitude Reporting Facility
EDT Latitude Longitude Course Direction KTS MPH feet Rate Location/Type
Sat 04:12:33 PM 33.9261 -118.4794 55° Northeast 224 258 2,500  Level Los Angeles Center
Sat 04:13:35 PM 33.9022 -118.5567 250° West 245 282 5,100 2,710 Climbing Los Angeles Center
Sat 04:14:00 PM 34.1203 -118.0928 59° Northeast  Level FlightAware Approximate
Sat 04:14:37 PM 33.8442 -118.5936 208° Southwest 276 318 8,100  Level Los Angeles Center
Sat 04:15:00 PM 34.1835 -117.9664 59° Northeast  Level FlightAware Approximate
Sat 04:15:39 PM 33.8497 -118.5078 86° East 300 345 10,800  Level Los Angeles Center
Sat 04:16:00 PM 34.2496 -117.8423 51° Northeast  Level FlightAware Approximate
Sat 04:16:41 PM 33.9150 -118.4503 36° Northeast 324 373 12,600  Level Los Angeles Center
Sat 04:17:00 PM 34.3173 -117.7239 55° Northeast  Level FlightAware Approximate
Sat 04:17:43 PM 33.9783 -118.3544 51° Northeast 368 423 14,500  Level Los Angeles Center
Sat 04:18:45 PM 34.0517 -118.2242 56° Northeast 387 445 17,100 2,129 Climbing Los Angeles Center
Sat 04:19:47 PM 34.1164 -118.1094 56° Northeast 408 470 18,900 2,160 Climbing Los Angeles Center
Sat 04:20:50 PM 34.1847 -117.9903 55° Northeast 428 493 21,600 2,016 Climbing Los Angeles Center
Sat 04:21:52 PM 34.2519 -117.8714 56° Northeast 428 493 23,100 1,306 Climbing Los Angeles Center
Sat 04:22:54 PM 34.3217 -117.7450 56° Northeast 447 514 24,300 1,113 Climbing Los Angeles Center
Sat 04:23:56 PM 34.4019 -117.6006 56° Northeast 475 547 25,400 1,161 Climbing Los Angeles Center
Sat 04:24:58 PM 34.4783 -117.4608 56° Northeast 496 571 26,700 1,161 Climbing Los Angeles Center
Sat 04:26:00 PM 34.5561 -117.3192 56° Northeast 508 585 27,800 1,113 Climbing Los Angeles Center
Sat 04:27:02 PM 34.6369 -117.1739 56° Northeast 520 598 29,000 1,403 Climbing Los Angeles Center
Sat 04:28:04 PM 34.7328 -116.9981 56° Northeast 524 603 30,700 1,548 Climbing Los Angeles Center
Sat 04:29:06 PM 34.8117 -116.8517 57° Northeast 523 602 32,200 1,113 Climbing Los Angeles Center
Sat 04:30:08 PM 34.8906 -116.7075 56° Northeast 516 594 33,000 387 Climbing Los Angeles Center
Sat 04:31:10 PM 34.9722 -116.5631 55° Northeast 520 598 33,000  Level Los Angeles Center
Sat 04:32:12 PM 35.0706 -116.4381 46° Northeast 513 590 33,000  Level Los Angeles Center
Sat 04:33:14 PM 35.1903 -116.2889 45° Northeast 514 592 33,000  Level Los Angeles Center
Sat 04:34:16 PM 35.2886 -116.1639 46° Northeast 512 589 33,000  Level Los Angeles Center
Sat 04:35:18 PM 35.3883 -116.0389 46° Northeast 514 592 33,000  Level Los Angeles Center
Sat 04:36:20 PM 35.4892 -115.9136 45° Northeast 517 595 33,000  Level Los Angeles Center
Sat 04:37:22 PM 35.5919 -115.7842 46° Northeast 515 593 33,000  Level Los Angeles Center
Sat 04:38:24 PM 35.7108 -115.6339 46° Northeast 513 590 33,000  Level Los Angeles Center
Sat 04:39:26 PM 35.8097 -115.5072 46° Northeast 515 593 33,000  Level Los Angeles Center
Sat 04:40:28 PM 35.9069 -115.3800 47° Northeast 512 589 33,000  Level Los Angeles Center
Sat 04:41:30 PM 36.0072 -115.2525 46° Northeast 518 596 33,000 484 Level Los Angeles Center
Sat 04:42:32 PM 36.0844 -115.1050 57° Northeast 522 601 34,000 484 Climbing Los Angeles Center
Sat 04:43:34 PM 36.1169 -114.8950 79° East 522 601 34,000  Level Los Angeles Center
Sat 04:44:36 PM 36.1406 -114.7172 81° East 525 604 34,000 194 Level Los Angeles Center
Sat 04:45:38 PM 36.1658 -114.5400 80° East 525 604 34,400 484 Climbing Los Angeles Center
Sat 04:46:40 PM 36.1906 -114.3625 80° East 526 605 35,000 290 Climbing Los Angeles Center
Sat 04:47:42 PM 36.2169 -114.1875 79° East 520 598 35,000  Level Los Angeles Center
Sat 04:48:44 PM 36.2411 -114.0103 80° East 522 601 35,000  Level Los Angeles Center
Sat 04:49:46 PM 36.2694 -113.7986 81° East 521 600 35,000  Level Los Angeles Center
Sat 04:50:48 PM 36.2928 -113.6206 81° East 522 601 35,000  Level Los Angeles Center
Sat 04:51:50 PM 36.3181 -113.4436 80° East 523 602 35,000  Level Los Angeles Center
Sat 04:52:52 PM 36.3408 -113.2664 81° East 521 600 35,000  Level Los Angeles Center
Sat 04:53:54 PM 36.3633 -113.0869 81° East 523 602 35,000  Level Los Angeles Center
Sat 04:54:56 PM 36.3817 -112.9450 81° East 524 603 35,000  Level Los Angeles Center
Sat 04:55:58 PM 36.4122 -112.6981 81° East 522 601 35,000  Level Los Angeles Center
Sat 04:57:00 PM 36.4347 -112.5253 81° East 515 593 35,000  Level Los Angeles Center
Sat 04:58:02 PM 36.4569 -112.3486 81° East 519 597 35,000  Level Los Angeles Center
Sat 04:59:04 PM 36.4783 -112.1733 81° East 518 596 35,000  Level Los Angeles Center
Sat 05:00:06 PM 36.5011 -111.9983 81° East 517 595 35,000  Level Los Angeles Center
Sat 05:01:08 PM 36.5439 -111.8264 73° East 522 601 35,000  Level Los Angeles Center
Sat 05:02:10 PM 36.5964 -111.6239 72° East 516 594 35,000  Level Los Angeles Center
Sat 05:03:12 PM 36.6406 -111.4533 72° East 520 598 35,000  Level Los Angeles Center
Sat 05:04:14 PM 36.6847 -111.2839 72° East 518 596 35,000  Level Los Angeles Center
Sat 05:05:29 PM 36.7367 -111.0789 72° East 518 596 35,000  Level Denver Center
Sat 05:06:30 PM 36.7806 -110.9092 72° East 517 595 35,000  Level Denver Center
Sat 05:07:32 PM 36.8283 -110.7067 74° East 517 595 35,000  Level Denver Center
Sat 05:08:34 PM 36.8697 -110.5358 73° East 517 595 35,000  Level Denver Center
Sat 05:09:35 PM 36.9114 -110.3664 73° East 515 593 35,000  Level Denver Center
Sat 05:10:37 PM 36.9528 -110.1953 73° East 515 593 35,000  Level Denver Center
Sat 05:11:39 PM 36.9942 -110.0222 73° East 517 595 35,000  Level Denver Center
Sat 05:12:40 PM 37.0233 -109.8250 79° East 516 594 35,000  Level Denver Center
Sat 05:13:42 PM 37.0444 -109.6547 81° East 515 593 35,000  Level Denver Center
Sat 05:14:44 PM 37.0667 -109.4847 81° East 516 594 35,000  Level Denver Center
Sat 05:15:45 PM 37.0911 -109.2847 81° East 519 597 35,000  Level Denver Center
Sat 05:16:47 PM 37.1131 -109.1139 81° East 518 596 35,000  Level Denver Center
Sat 05:17:49 PM 37.1378 -108.9133 81° East 519 597 35,000  Level Denver Center
Sat 05:18:50 PM 37.1592 -108.7408 81° East 523 602 35,000  Level Denver Center
Sat 05:19:51 PM 37.1786 -108.5961 80° East 525 604 35,000  Level Denver Center
Sat 05:20:53 PM 37.2103 -108.3697 80° East 518 596 35,000  Level Denver Center
Sat 05:21:55 PM 37.2336 -108.1994 80° East 517 595 35,000  Level Denver Center
Sat 05:22:57 PM 37.2589 -107.9975 81° East 522 601 35,000  Level Denver Center
Sat 05:23:58 PM 37.2814 -107.8258 81° East 520 598 35,000  Level Denver Center
Sat 05:25:00 PM 37.3072 -107.6256 81° East 521 600 35,000  Level Denver Center
Sat 05:26:02 PM 37.3289 -107.4522 81° East 524 603 35,000  Level Denver Center
Sat 05:27:03 PM 37.3519 -107.2803 80° East 523 602 35,000  Level Denver Center
Sat 05:28:05 PM 37.3769 -107.0775 81° East 525 604 35,000  Level Denver Center
Sat 05:29:07 PM 37.3961 -106.9028 82° East 526 605 35,000  Level Denver Center
Sat 05:30:08 PM 37.4131 -106.7578 82° East 527 606 35,000  Level Denver Center
Sat 05:31:10 PM 37.4419 -106.5275 81° East 520 598 35,000  Level Denver Center
Sat 05:32:12 PM 37.4600 -106.3525 83° East 525 604 35,000  Level Denver Center
Sat 05:33:13 PM 37.4853 -106.1525 81° East 519 597 35,000  Level Denver Center
Sat 05:34:15 PM 37.5019 -105.9778 83° East 525 604 35,000  Level Denver Center
Sat 05:35:17 PM 37.5331 -105.7789 79° East 520 598 35,000  Level Denver Center
Sat 05:36:18 PM 37.5581 -105.6036 80° East 520 598 35,000  Level Denver Center
Sat 05:37:20 PM 37.5853 -105.4322 79° East 520 598 35,000  Level Denver Center
Sat 05:38:21 PM 37.6133 -105.2311 80° East 521 600 35,000  Level Denver Center
Sat 05:39:23 PM 37.6378 -105.0597 80° East 519 597 35,000  Level Denver Center
Sat 05:40:25 PM 37.6669 -104.8600 79° East 519 597 35,000  Level Denver Center
Sat 05:41:26 PM 37.6900 -104.6883 80° East 518 596 35,000  Level Denver Center
Sat 05:42:28 PM 37.7136 -104.5150 80° East 521 600 35,000  Level Denver Center
Sat 05:43:30 PM 37.7417 -104.3131 80° East 518 596 35,000  Level Denver Center
Sat 05:44:31 PM 37.7647 -104.1386 80° East 520 598 35,000  Level Denver Center
Sat 05:45:45 PM 37.7922 -103.9347 80° East 520 598 35,000  Level Denver Center
Sat 05:46:47 PM 37.8186 -103.7322 81° East 518 596 35,000  Level Denver Center
Sat 05:47:48 PM 37.8444 -103.5294 81° East 520 598 35,000  Level Denver Center
Sat 05:48:50 PM 37.8664 -103.3567 81° East 518 596 35,000  Level Denver Center
Sat 05:49:52 PM 37.8878 -103.1844 81° East 518 596 35,000  Level Denver Center
Sat 05:50:53 PM 37.9119 -102.9819 81° East 519 597 35,000  Level Denver Center
Sat 05:51:54 PM 37.9294 -102.8386 81° East 518 596 35,000  Level Denver Center
Sat 05:52:56 PM 37.9567 -102.6092 81° East 515 593 35,000  Level Denver Center
Sat 05:53:58 PM 37.9778 -102.4400 81° East 515 593 35,000  Level Denver Center
Sat 05:55:00 PM 37.9903 -102.2369 85° East 517 595 35,000  Level Denver Center
Sat 05:56:01 PM 37.9919 -102.0619 89° East 519 597 35,000  Level Denver Center
Sat 05:57:15 PM 37.9933 -101.8883 89° East 517 595 35,000  Level Denver Center
Sat 05:58:17 PM 37.9967 -101.6564 89° East 516 594 35,000  Level Denver Center
Sat 05:59:18 PM 37.9978 -101.4825 89° East 514 592 35,000  Level Denver Center
Sat 06:00:20 PM 37.9997 -101.2800 89° East 514 592 35,000  Level Denver Center
Sat 06:01:34 PM 38.0003 -101.0783 90° East 510 587 35,000  Level Denver Center
Sat 06:02:35 PM 38.0008 -100.8775 90° East 507 583 35,000  Level Denver Center
Sat 06:03:36 PM 38.0011 -100.7358 90° East 503 579 35,000  Level Denver Center
Sat 06:04:36 PM 38.0003 -100.5361 90° East 500 575 35,000  Level Kansas City Center
Sat 06:05:37 PM 38.0006 -100.3403 90° East 497 572 35,000  Level Kansas City Center
Sat 06:06:39 PM 37.9992 -100.1744 91° East 494 568 35,000  Level Kansas City Center
Sat 06:07:40 PM 37.9992 -100.0131 90° East 482 555 35,000  Level Kansas City Center
Sat 06:08:41 PM 38.0083 -99.8258 86° East 477 549 35,000 228 Level Kansas City Center
Sat 06:10:00 PM 38.0223 -99.6185 85° East  Level FlightAware Approximate
Sat 06:10:44 PM 38.0328 -99.4861 85° East 468 539 35,700  Level Kansas City Center
Sat 06:11:46 PM 38.0400 -99.3456 86° East 472 543 36,600 634 Climbing Kansas City Center
Sat 06:12:47 PM 38.0528 -99.1453 85° East 475 547 37,000 195 Climbing Kansas City Center
Sat 06:13:49 PM 38.0633 -98.9800 85° East 472 543 37,000  Level Kansas City Center
Sat 06:14:50 PM 38.0742 -98.8128 85° East 474 545 37,000  Level Kansas City Center
Sat 06:15:52 PM 38.0833 -98.6436 86° East 478 550 37,000  Level Kansas City Center
Sat 06:16:53 PM 38.0956 -98.4753 85° East 477 549 37,000  Level Kansas City Center
Sat 06:17:54 PM 38.1053 -98.3064 86° East 478 550 37,000  Level Kansas City Center
Sat 06:18:56 PM 38.1153 -98.1375 86° East 476 548 37,000  Level Kansas City Center
Sat 06:19:57 PM 38.1236 -97.9703 86° East 469 540 37,000  Level Kansas City Center
Sat 06:20:59 PM 38.1331 -97.7856 86° East 464 534 37,000  Level Kansas City Center
Sat 06:22:00 PM 38.1411 -97.6222 86° East 464 534 37,000  Level Kansas City Center
Sat 06:23:01 PM 38.1492 -97.4558 86° East 456 525 37,000  Level Kansas City Center
Sat 06:24:03 PM 38.1553 -97.3194 87° East 449 517 37,000  Level Kansas City Center
Sat 06:25:04 PM 38.1631 -97.1636 86° East 442 509 37,000  Level Kansas City Center
Sat 06:26:05 PM 38.1706 -97.0111 86° East 435 501 37,000  Level Kansas City Center
Sat 06:27:07 PM 38.1781 -96.8269 87° East 435 501 37,000 49 Level Kansas City Center
Sat 06:28:08 PM 38.1861 -96.6758 86° East 431 496 37,100 293 Climbing Kansas City Center
Sat 06:29:10 PM 38.2003 -96.5242 83° East 434 499 37,600 683 Climbing Kansas City Center
Sat 06:30:11 PM 38.2319 -96.3728 75° East 437 503 38,500 541 Climbing Kansas City Center
Sat 06:31:12 PM 38.2617 -96.2286 75° East 440 506 38,700 244 Climbing Kansas City Center
Sat 06:32:14 PM 38.2967 -96.0589 75° East 446 513 39,000 146 Climbing Kansas City Center
Sat 06:33:15 PM 38.3264 -95.9111 76° East 450 518 39,000  Level Kansas City Center
Sat 06:34:17 PM 38.3611 -95.7383 76° East 453 521 39,000  Level Kansas City Center
Sat 06:35:18 PM 38.3911 -95.5900 75° East 454 522 39,000  Level Kansas City Center
Sat 06:36:20 PM 38.4264 -95.4147 76° East 456 525 39,000  Level Kansas City Center
Sat 06:37:21 PM 38.4550 -95.2678 76° East 453 521 39,000  Level Kansas City Center
Sat 06:38:23 PM 38.4836 -95.1211 76° East 448 516 39,000  Level Kansas City Center
Sat 06:39:24 PM 38.5169 -94.9511 76° East 446 513 39,000  Level Kansas City Center
Sat 06:40:26 PM 38.5447 -94.8053 76° East 444 511 39,000  Level Kansas City Center
Sat 06:41:27 PM 38.5767 -94.6372 76° East 439 505 39,000  Level Kansas City Center
Sat 06:42:29 PM 38.6042 -94.4931 76° East 438 504 39,000  Level Kansas City Center
Sat 06:43:30 PM 38.6353 -94.3256 77° East 436 502 39,000  Level Kansas City Center
Sat 06:44:32 PM 38.6619 -94.1806 77° East 437 503 39,000  Level Kansas City Center
Sat 06:45:33 PM 38.6883 -94.0364 77° East 437 503 39,000  Level Kansas City Center
Sat 06:46:34 PM 38.7194 -93.8667 77° East 437 503 39,000  Level Kansas City Center
Sat 06:47:36 PM 38.7458 -93.7256 76° East 443 510 39,000  Level Kansas City Center
Sat 06:48:39 PM 38.7731 -93.5706 77° East 444 511 39,000  Level Kansas City Center
Sat 06:49:39 PM 38.8061 -93.3836 77° East 444 511 39,000  Level Kansas City Center
Sat 06:50:40 PM 38.8339 -93.2258 77° East 448 516 39,000  Level Kansas City Center
Sat 06:51:42 PM 38.8597 -93.0708 78° East 445 512 39,000  Level Kansas City Center
Sat 06:52:43 PM 38.8861 -92.9150 78° East 444 511 39,000  Level Kansas City Center
Sat 06:53:45 PM 38.9147 -92.7561 77° East 448 516 39,000  Level Kansas City Center
Sat 06:54:46 PM 38.9419 -92.5997 77° East 449 517 39,000  Level Kansas City Center
Sat 06:55:48 PM 38.9669 -92.4450 78° East 444 511 39,000  Level Kansas City Center
Sat 06:56:49 PM 38.9928 -92.2900 78° East 441 507 39,000  Level Kansas City Center
Sat 06:57:51 PM 39.0164 -92.1414 78° East 430 495 39,000  Level Kansas City Center
Sat 06:58:52 PM 39.0406 -91.9925 78° East 424 488 39,000  Level Kansas City Center
Sat 06:59:54 PM 39.0653 -91.8450 78° East 423 487 39,000  Level Kansas City Center
Sat 07:00:55 PM 39.1206 -91.7122 62° Northeast 422 486 39,000  Level Kansas City Center
Sat 07:01:57 PM 39.1758 -91.5769 62° Northeast 424 488 39,000  Level Kansas City Center
Sat 07:02:58 PM 39.2447 -91.4175 61° Northeast 425 489 39,000  Level Kansas City Center
Sat 07:03:59 PM 39.3000 -91.2867 61° Northeast 420 483 39,000  Level Kansas City Center
Sat 07:05:01 PM 39.3525 -91.1519 63° Northeast 419 482 39,000  Level Kansas City Center
Sat 07:06:02 PM 39.4008 -91.0131 66° East 422 486 39,000  Level Kansas City Center
Sat 07:07:04 PM 39.4508 -90.8756 65° Northeast 422 486 39,000  Level Kansas City Center
Sat 07:08:05 PM 39.4911 -90.7303 70° East 426 490 39,000  Level Kansas City Center
Sat 07:09:07 PM 39.5322 -90.5867 70° East 426 490 39,000  Level Kansas City Center
Sat 07:10:08 PM 39.5619 -90.4397 75° East 423 487 39,000  Level Kansas City Center
Sat 07:11:10 PM 39.5825 -90.2881 80° East 425 489 39,000  Level Kansas City Center
Sat 07:12:11 PM 39.6042 -90.1369 79° East 426 490 39,000  Level Kansas City Center
Sat 07:13:13 PM 39.6289 -89.9556 80° East 425 489 39,000  Level Kansas City Center
Sat 07:14:14 PM 39.6492 -89.8044 80° East 425 489 39,000  Level Kansas City Center
Sat 07:15:15 PM 39.6700 -89.6556 80° East 422 486 39,000  Level Kansas City Center
Sat 07:16:17 PM 39.6900 -89.5050 80° East 423 487 39,000  Level Kansas City Center
Sat 07:17:18 PM 39.7081 -89.3708 80° East 420 483 39,000  Level Kansas City Center
Sat 07:18:20 PM 39.7311 -89.1944 80° East 416 479 39,000  Level Kansas City Center
Sat 07:19:21 PM 39.7492 -89.0469 81° East 416 479 39,000  Level Kansas City Center
Sat 07:20:23 PM 39.7694 -88.8986 80° East 417 480 39,000  Level Kansas City Center
Sat 07:21:24 PM 39.7883 -88.7492 81° East 419 482 39,000  Level Kansas City Center
Sat 07:22:25 PM 39.8064 -88.6008 81° East 418 481 39,000  Level Kansas City Center
Sat 07:23:27 PM 39.8256 -88.4506 81° East 420 483 39,000  Level Kansas City Center
Sat 07:24:28 PM 39.8447 -88.3003 81° East 421 484 39,000  Level Kansas City Center
Sat 07:25:29 PM 39.8661 -88.1272 81° East 424 488 39,000  Level Kansas City Center
Sat 07:26:03 PM 39.8736 -88.0592 82° East 424 488 39,000  Level Indianapolis Center
Sat 07:26:24 PM 39.8819 -88.0014 79° East 419 482 39,000  Level Chicago Center
Sat 07:27:25 PM 39.8981 -87.8500 82° East 421 484 39,000  Level Chicago Center
Sat 07:28:05 PM 39.9094 -87.7578 81° East 425 489 39,000  Level Indianapolis Center
Sat 07:29:07 PM 39.9317 -87.5733 81° East 431 496 39,000  Level Indianapolis Center
Sat 07:30:08 PM 39.9486 -87.4214 82° East 428 493 39,000  Level Indianapolis Center
Sat 07:31:09 PM 39.9667 -87.2656 81° East 434 499 39,000  Level Indianapolis Center
Sat 07:32:10 PM 39.9842 -87.1117 82° East 431 496 39,000  Level Indianapolis Center
Sat 07:33:11 PM 40.0025 -86.9553 81° East 436 502 39,000  Level Indianapolis Center
Sat 07:34:12 PM 40.0192 -86.7997 82° East 434 499 39,000  Level Indianapolis Center
Sat 07:35:13 PM 40.0361 -86.6425 82° East 435 501 39,000  Level Indianapolis Center
Sat 07:36:14 PM 40.0533 -86.4858 82° East 435 501 39,000  Level Indianapolis Center
Sat 07:37:16 PM 40.0708 -86.3278 82° East 436 502 39,000  Level Indianapolis Center
Sat 07:37:39 PM 40.0778 -86.2647 82° East 439 505 39,000  Level Chicago Center
Sat 07:38:40 PM 40.0939 -86.1069 82° East 438 504 39,000  Level Chicago Center
Sat 07:39:18 PM 40.1028 -86.0125 83° East 436 502 39,000  Level Indianapolis Center
Sat 07:40:19 PM 40.1181 -85.8558 83° East 434 499 39,000  Level Indianapolis Center
Sat 07:40:43 PM 40.1256 -85.7942 81° East 433 498 39,000  Level Chicago Center
Sat 07:41:45 PM 40.1433 -85.6094 83° East 430 495 39,000  Level Chicago Center
Sat 07:42:46 PM 40.1589 -85.4564 82° East 428 493 39,000  Level Chicago Center
Sat 07:43:22 PM 40.1650 -85.3622 85° East 429 494 39,000  Level Indianapolis Center
Sat 07:44:23 PM 40.1808 -85.2100 82° East 425 489 39,000  Level Indianapolis Center
Sat 07:45:25 PM 40.1956 -85.0581 83° East 423 487 39,000  Level Indianapolis Center
Sat 07:46:26 PM 40.2083 -84.9061 84° East 422 486 39,000  Level Indianapolis Center
Sat 07:47:27 PM 40.2231 -84.7653 82° East 421 484 39,000  Level Indianapolis Center
Sat 07:48:28 PM 40.2392 -84.5856 83° East 422 486 39,000  Level Indianapolis Center
Sat 07:49:29 PM 40.2531 -84.4314 83° East 422 486 39,000  Level Indianapolis Center
Sat 07:50:30 PM 40.2667 -84.2769 83° East 424 488 39,000  Level Indianapolis Center
Sat 07:51:32 PM 40.2797 -84.1211 84° East 426 490 39,000  Level Indianapolis Center
Sat 07:52:33 PM 40.3189 -83.9731 71° East 431 496 39,000  Level Indianapolis Center
Sat 07:53:34 PM 40.3839 -83.8314 59° Northeast 443 510 39,000  Level Indianapolis Center
Sat 07:54:35 PM 40.4486 -83.6917 59° Northeast 443 510 39,000  Level Indianapolis Center
Sat 07:55:36 PM 40.5125 -83.5519 59° Northeast 442 509 39,000  Level Indianapolis Center
Sat 07:56:37 PM 40.5756 -83.4119 59° Northeast 439 505 39,000  Level Indianapolis Center
Sat 07:57:39 PM 40.6392 -83.2731 59° Northeast 438 504 39,000  Level Indianapolis Center
Sat 07:58:24 PM 40.6839 -83.1789 58° Northeast 438 504 39,000  Level Cleveland Center
Sat 07:59:24 PM 40.7453 -83.0414 59° Northeast 438 504 39,000  Level Cleveland Center
Sat 08:00:24 PM 40.7961 -82.8981 65° Northeast 438 504 39,000  Level Cleveland Center
Sat 08:01:24 PM 40.8325 -82.7483 72° East 427 491 39,000  Level Cleveland Center
Sat 08:02:24 PM 40.8708 -82.5958 72° East 427 491 39,000  Level Cleveland Center
Sat 08:03:24 PM 40.9067 -82.4486 72° East 427 491 39,000  Level Cleveland Center
Sat 08:04:24 PM 40.9467 -82.2847 72° East 422 486 39,000  Level Cleveland Center
Sat 08:05:24 PM 40.9842 -82.1317 72° East 422 486 39,000  Level Cleveland Center
Sat 08:06:24 PM 41.0217 -81.9811 72° East 422 486 39,000  Level Cleveland Center
Sat 08:07:24 PM 41.0567 -81.8361 72° East 422 486 39,000  Level Cleveland Center
Sat 08:08:24 PM 41.0917 -81.6850 73° East 422 486 39,000  Level Cleveland Center
Sat 08:09:24 PM 41.1286 -81.5286 73° East 428 493 39,000  Level Cleveland Center
Sat 08:10:24 PM 41.1650 -81.3775 72° East 428 493 39,000  Level Cleveland Center
Sat 08:11:24 PM 41.2014 -81.2261 72° East 428 493 39,000  Level Cleveland Center
Sat 08:12:24 PM 41.2378 -81.0747 72° East 428 493 39,000  Level Cleveland Center
Sat 08:13:24 PM 41.2736 -80.9175 73° East 428 493 39,000  Level Cleveland Center
Sat 08:14:24 PM 41.3094 -80.7628 73° East 435 501 39,000  Level Cleveland Center
Sat 08:15:24 PM 41.3450 -80.6081 73° East 435 501 39,000  Level Cleveland Center
Sat 08:16:24 PM 41.3803 -80.4531 73° East 440 506 39,000  Level Cleveland Center
Sat 08:17:24 PM 41.4178 -80.2953 72° East 435 501 39,000  Level Cleveland Center
Sat 08:18:24 PM 41.4525 -80.1369 74° East 435 501 39,000  Level Cleveland Center
Sat 08:19:24 PM 41.4811 -80.0150 73° East 435 501 39,000  Level Cleveland Center
Sat 08:20:24 PM 41.5219 -79.8289 74° East 435 501 39,000  Level Cleveland Center
Sat 08:21:24 PM 41.5519 -79.6703 76° East 435 501 39,000  Level Cleveland Center
Sat 08:22:24 PM 41.5442 -79.5039 94° East 435 501 39,000  Level Cleveland Center
Sat 08:23:24 PM 41.5342 -79.3378 95° East 440 506 39,000  Level Cleveland Center
Sat 08:24:24 PM 41.5239 -79.1742 95° East 446 513 39,000  Level Cleveland Center
Sat 08:25:24 PM 41.5136 -79.0192 95° East 451 519 39,000  Level Cleveland Center
Sat 08:26:24 PM 41.5008 -78.8419 95° East 458 527 39,000 -552 Level Cleveland Center
Sat 08:28:18 PM 41.4783 -78.5275 95° East 481 554 37,400 -1,029 Descending New York Center
Sat 08:29:19 PM 41.4667 -78.3572 95° East 476 548 36,000 -1,438 Descending New York Center
Sat 08:30:19 PM 41.4522 -78.1867 96° East 464 534 34,500 -1,576 Descending New York Center
Sat 08:31:17 PM 41.4422 -78.0139 94° East 464 534 32,900 -1,576 Descending New York Center
Sat 08:32:17 PM 41.4275 -77.8433 97° East 469 540 31,400 -934 Descending New York Center
Sat 08:33:19 PM 41.4158 -77.6872 96° East 469 540 31,000 -634 Descending New York Center
Sat 08:34:20 PM 41.4025 -77.5172 96° East 469 540 30,100 -1,119 Descending New York Center
Sat 08:35:17 PM 41.3869 -77.3522 97° East 463 533 28,800 -1,119 Descending New York Center
Sat 08:36:18 PM 41.3714 -77.1794 97° East 463 533 27,900 -885 Descending New York Center
Sat 08:37:19 PM 41.3592 -77.0178 96° East 463 533 27,000 -793 Descending New York Center
Sat 08:38:19 PM 41.3447 -76.8533 97° East 452 520 26,300 -800 Descending New York Center
Sat 08:39:19 PM 41.3172 -76.6964 103° East 442 509 25,400 -915 Descending New York Center
Sat 08:40:17 PM 41.2694 -76.5264 110° East 442 509 24,500 -1,109 Descending New York Center
Sat 08:41:18 PM 41.2286 -76.3767 110° East 442 509 23,200 -1,736 Descending New York Center
Sat 08:42:18 PM 41.1897 -76.2300 109° East 436 502 21,000 -2,420 Descending New York Center
Sat 08:43:17 PM 41.1525 -76.0864 109° East 419 482 18,400 -1,475 Descending New York Center
Sat 08:44:20 PM 41.1203 -75.9656 109° East 397 457 18,000 -200 Descending New York Center
Sat 08:45:17 PM 41.0803 -75.8303 111° Southeast 392 451 18,000 -605 Level New York Center
Sat 08:46:19 PM 41.0428 -75.6817 108° East 392 451 16,800 -1,550 Descending New York Center
Sat 08:47:17 PM 41.0064 -75.5525 110° East 379 436 14,900 -1,729 Descending New York Center
Sat 08:48:17 PM 40.9733 -75.4403 111° Southeast 373 429 13,400 -1,438 Descending New York Center
Sat 08:49:18 PM 40.9406 -75.3256 111° Southeast 351 404 12,000 -1,377 Descending New York Center
Sat 08:50:19 PM 40.9114 -75.2164 109° East 297 342 10,600 -1,240 Descending New York Center
Sat 08:51:19 PM 40.8856 -75.1269 111° Southeast 272 313 9,500 -1,140 Descending New York Center
Sat 08:52:20 PM 40.8597 -75.0347 110° East 262 302 8,300 -1,261 Descending New York Center
Sat 08:53:18 PM 40.8375 -74.9564 111° Southeast 254 292 7,000 -655 Descending New York Center
Sat 08:54:19 PM 40.8244 -74.8514 99° East 260 299 7,000 -347 Level New York Center
Sat 08:55:19 PM 40.8461 -74.7650 72° East 248 285 6,300 -508 Descending New York Center
Sat 08:56:17 PM 40.8700 -74.6758 70° East 253 291 6,000 -300 Descending New York Center
Sat 08:57:19 PM 40.8936 -74.5867 71° East 253 291 5,700 -634 Descending New York Center
Sat 08:58:20 PM 40.9108 -74.5108 73° East 248 285 4,700 -857 Descending New York Center
Sat 08:59:18 PM 40.9097 -74.4092 91° East 237 273 4,000 -350 Descending New York Center
Sat 09:00:20 PM 40.9100 -74.3294 90° East 237 273 4,000 -504 Level New York Center
Sat 09:01:17 PM 40.9108 -74.2308 89° East 237 273 3,000 -500 Descending New York Center
Sat 09:02:20 PM 40.8967 -74.1450 102° East 237 273 3,000  Level New York Center
Sat 09:03:18 PM 40.8567 -74.0853 132° Southeast 242 278 3,000  Level New York Center

Login

Don't have an account? Register now (free) for customized features, flight alerts, and more!